sensor_id;sensor_type;location;lat;lon;timestamp;temperature;humidity
10300;DHT22;5195;48.562;9.192;2024-02-16T00:01:09;12.90;52.70
10300;DHT22;5195;48.562;9.192;2024-02-16T00:03:45;12.90;52.20
10300;DHT22;5195;48.562;9.192;2024-02-16T00:06:21;12.80;52.30
10300;DHT22;5195;48.562;9.192;2024-02-16T00:08:57;12.50;52.60
10300;DHT22;5195;48.562;9.192;2024-02-16T00:11:32;12.50;52.60
10300;DHT22;5195;48.562;9.192;2024-02-16T00:14:09;12.70;52.70
10300;DHT22;5195;48.562;9.192;2024-02-16T00:16:45;13.10;52.20
10300;DHT22;5195;48.562;9.192;2024-02-16T00:19:20;13.30;51.60
10300;DHT22;5195;48.562;9.192;2024-02-16T00:21:57;13.50;51.40
10300;DHT22;5195;48.562;9.192;2024-02-16T00:24:33;13.60;51.20
10300;DHT22;5195;48.562;9.192;2024-02-16T00:27:08;13.30;51.20
10300;DHT22;5195;48.562;9.192;2024-02-16T00:29:44;13.30;51.80
10300;DHT22;5195;48.562;9.192;2024-02-16T00:32:20;12.70;52.60
10300;DHT22;5195;48.562;9.192;2024-02-16T00:34:57;12.70;52.10
10300;DHT22;5195;48.562;9.192;2024-02-16T00:37:31;12.50;52.60
10300;DHT22;5195;48.562;9.192;2024-02-16T00:40:07;12.30;52.80
10300;DHT22;5195;48.562;9.192;2024-02-16T00:42:45;12.40;53.60
10300;DHT22;5195;48.562;9.192;2024-02-16T00:45:20;12.80;53.50
10300;DHT22;5195;48.562;9.192;2024-02-16T00:47:56;12.70;53.10
10300;DHT22;5195;48.562;9.192;2024-02-16T00:50:31;12.80;53.70
10300;DHT22;5195;48.562;9.192;2024-02-16T00:53:07;12.60;53.40
10300;DHT22;5195;48.562;9.192;2024-02-16T00:55:43;12.80;53.90
10300;DHT22;5195;48.562;9.192;2024-02-16T00:58:18;12.70;53.60
10300;DHT22;5195;48.562;9.192;2024-02-16T01:00:54;12.80;54.10
10300;DHT22;5195;48.562;9.192;2024-02-16T01:03:29;12.70;53.80
10300;DHT22;5195;48.562;9.192;2024-02-16T01:06:05;12.80;54.10
10300;DHT22;5195;48.562;9.192;2024-02-16T01:08:41;12.80;53.90
10300;DHT22;5195;48.562;9.192;2024-02-16T01:11:16;12.50;54.10
10300;DHT22;5195;48.562;9.192;2024-02-16T01:13:52;12.70;54.30
10300;DHT22;5195;48.562;9.192;2024-02-16T01:16:27;12.70;54.10
10300;DHT22;5195;48.562;9.192;2024-02-16T01:19:03;12.80;53.90
10300;DHT22;5195;48.562;9.192;2024-02-16T01:21:39;12.80;53.60
10300;DHT22;5195;48.562;9.192;2024-02-16T01:24:14;12.60;53.80
10300;DHT22;5195;48.562;9.192;2024-02-16T01:26:50;12.80;53.90
10300;DHT22;5195;48.562;9.192;2024-02-16T01:29:25;13.00;53.30
10300;DHT22;5195;48.562;9.192;2024-02-16T01:32:01;13.00;53.10
10300;DHT22;5195;48.562;9.192;2024-02-16T01:34:37;13.10;52.90
10300;DHT22;5195;48.562;9.192;2024-02-16T01:37:12;13.10;52.80
10300;DHT22;5195;48.562;9.192;2024-02-16T01:39:48;12.80;53.00
10300;DHT22;5195;48.562;9.192;2024-02-16T01:42:23;12.90;52.50
10300;DHT22;5195;48.562;9.192;2024-02-16T01:44:59;13.00;52.50
10300;DHT22;5195;48.562;9.192;2024-02-16T01:47:35;13.10;52.40
10300;DHT22;5195;48.562;9.192;2024-02-16T01:50:10;13.10;52.40
10300;DHT22;5195;48.562;9.192;2024-02-16T01:52:46;12.90;52.50
10300;DHT22;5195;48.562;9.192;2024-02-16T01:55:21;13.00;52.60
10300;DHT22;5195;48.562;9.192;2024-02-16T01:57:58;13.00;52.50
10300;DHT22;5195;48.562;9.192;2024-02-16T02:00:34;13.20;52.20
10300;DHT22;5195;48.562;9.192;2024-02-16T02:03:10;13.50;51.70
10300;DHT22;5195;48.562;9.192;2024-02-16T02:05:45;13.40;51.60
10300;DHT22;5195;48.562;9.192;2024-02-16T02:08:21;13.10;52.00
10300;DHT22;5195;48.562;9.192;2024-02-16T02:10:57;13.20;52.50
10300;DHT22;5195;48.562;9.192;2024-02-16T02:13:33;13.10;52.40
10300;DHT22;5195;48.562;9.192;2024-02-16T02:16:10;13.20;52.50
10300;DHT22;5195;48.562;9.192;2024-02-16T02:18:44;13.40;52.10
10300;DHT22;5195;48.562;9.192;2024-02-16T02:21:21;13.70;51.90
10300;DHT22;5195;48.562;9.192;2024-02-16T02:23:56;13.70;51.20
10300;DHT22;5195;48.562;9.192;2024-02-16T02:26:32;13.80;51.00
10300;DHT22;5195;48.562;9.192;2024-02-16T02:29:07;13.90;50.90
10300;DHT22;5195;48.562;9.192;2024-02-16T02:31:43;13.60;51.10
10300;DHT22;5195;48.562;9.192;2024-02-16T02:34:18;13.60;51.60
10300;DHT22;5195;48.562;9.192;2024-02-16T02:36:56;13.70;51.40
10300;DHT22;5195;48.562;9.192;2024-02-16T02:39:32;13.90;50.80
10300;DHT22;5195;48.562;9.192;2024-02-16T02:42:08;13.90;50.80
10300;DHT22;5195;48.562;9.192;2024-02-16T02:44:47;14.10;50.70
10300;DHT22;5195;48.562;9.192;2024-02-16T02:47:23;13.80;51.40
10300;DHT22;5195;48.562;9.192;2024-02-16T02:49:59;13.80;50.70
10300;DHT22;5195;48.562;9.192;2024-02-16T02:52:35;13.40;51.50
10300;DHT22;5195;48.562;9.192;2024-02-16T02:55:11;13.40;51.50
10300;DHT22;5195;48.562;9.192;2024-02-16T02:57:46;13.20;51.40
10300;DHT22;5195;48.562;9.192;2024-02-16T03:00:22;12.90;51.80
10300;DHT22;5195;48.562;9.192;2024-02-16T03:02:58;13.00;51.90
10300;DHT22;5195;48.562;9.192;2024-02-16T03:05:35;13.60;50.70
10300;DHT22;5195;48.562;9.192;2024-02-16T03:08:11;13.50;50.60
10300;DHT22;5195;48.562;9.192;2024-02-16T03:10:46;13.40;50.60
10300;DHT22;5195;48.562;9.192;2024-02-16T03:13:22;13.10;50.90
10300;DHT22;5195;48.562;9.192;2024-02-16T03:15:57;13.20;51.50
10300;DHT22;5195;48.562;9.192;2024-02-16T03:18:33;13.40;51.50
10300;DHT22;5195;48.562;9.192;2024-02-16T03:21:08;13.60;51.20
10300;DHT22;5195;48.562;9.192;2024-02-16T03:23:44;13.40;51.10
10300;DHT22;5195;48.562;9.192;2024-02-16T03:26:20;13.00;51.60
10300;DHT22;5195;48.562;9.192;2024-02-16T03:28:55;13.00;52.30
10300;DHT22;5195;48.562;9.192;2024-02-16T03:31:31;13.20;51.90
10300;DHT22;5195;48.562;9.192;2024-02-16T03:34:06;13.00;51.60
10300;DHT22;5195;48.562;9.192;2024-02-16T03:36:42;13.00;51.90
10300;DHT22;5195;48.562;9.192;2024-02-16T03:39:18;13.20;51.80
10300;DHT22;5195;48.562;9.192;2024-02-16T03:41:53;13.10;51.80
10300;DHT22;5195;48.562;9.192;2024-02-16T03:44:29;12.80;52.20
10300;DHT22;5195;48.562;9.192;2024-02-16T03:47:04;12.50;52.60
10300;DHT22;5195;48.562;9.192;2024-02-16T03:49:40;12.30;52.90
10300;DHT22;5195;48.562;9.192;2024-02-16T03:52:15;12.10;53.10
10300;DHT22;5195;48.562;9.192;2024-02-16T03:54:51;12.30;53.70
10300;DHT22;5195;48.562;9.192;2024-02-16T03:57:27;12.60;53.10
10300;DHT22;5195;48.562;9.192;2024-02-16T04:00:02;12.60;52.90
10300;DHT22;5195;48.562;9.192;2024-02-16T04:02:39;12.60;53.10
10300;DHT22;5195;48.562;9.192;2024-02-16T04:05:13;12.50;53.00
10300;DHT22;5195;48.562;9.192;2024-02-16T04:07:50;12.10;53.30
10300;DHT22;5195;48.562;9.192;2024-02-16T04:10:25;12.00;53.60
10300;DHT22;5195;48.562;9.192;2024-02-16T04:13:02;12.60;52.20
10300;DHT22;5195;48.562;9.192;2024-02-16T04:15:37;12.50;52.10
10300;DHT22;5195;48.562;9.192;2024-02-16T04:18:13;12.60;52.00
10300;DHT22;5195;48.562;9.192;2024-02-16T04:20:49;12.70;50.70
10300;DHT22;5195;48.562;9.192;2024-02-16T04:23:25;12.80;50.00
10300;DHT22;5195;48.562;9.192;2024-02-16T04:26:01;12.80;50.00
10300;DHT22;5195;48.562;9.192;2024-02-16T04:28:36;12.80;50.20
10300;DHT22;5195;48.562;9.192;2024-02-16T04:31:12;12.90;50.60
10300;DHT22;5195;48.562;9.192;2024-02-16T04:33:47;12.80;50.50
10300;DHT22;5195;48.562;9.192;2024-02-16T04:36:24;12.70;51.10
10300;DHT22;5195;48.562;9.192;2024-02-16T04:38:59;12.70;51.10
10300;DHT22;5195;48.562;9.192;2024-02-16T04:41:36;12.40;51.30
10300;DHT22;5195;48.562;9.192;2024-02-16T04:44:11;12.40;51.20
10300;DHT22;5195;48.562;9.192;2024-02-16T04:47:09;12.10;51.90
10300;DHT22;5195;48.562;9.192;2024-02-16T04:49:48;12.10;51.80
10300;DHT22;5195;48.562;9.192;2024-02-16T04:52:24;12.30;52.90
10300;DHT22;5195;48.562;9.192;2024-02-16T04:54:52;12.40;51.80
10300;DHT22;5195;48.562;9.192;2024-02-16T04:57:18;12.50;52.10
10300;DHT22;5195;48.562;9.192;2024-02-16T04:59:44;12.80;51.60
10300;DHT22;5195;48.562;9.192;2024-02-16T05:02:13;12.80;51.60
10300;DHT22;5195;48.562;9.192;2024-02-16T05:04:39;12.60;51.80
10300;DHT22;5195;48.562;9.192;2024-02-16T05:07:07;12.60;51.80
10300;DHT22;5195;48.562;9.192;2024-02-16T05:09:32;12.90;51.50
10300;DHT22;5195;48.562;9.192;2024-02-16T05:12:04;12.90;51.50
10300;DHT22;5195;48.562;9.192;2024-02-16T05:14:30;12.60;51.60
10300;DHT22;5195;48.562;9.192;2024-02-16T05:16:55;12.40;52.00
10300;DHT22;5195;48.562;9.192;2024-02-16T05:19:21;12.20;52.20
10300;DHT22;5195;48.562;9.192;2024-02-16T05:21:48;12.30;52.30
10300;DHT22;5195;48.562;9.192;2024-02-16T05:24:13;12.30;52.60
10300;DHT22;5195;48.562;9.192;2024-02-16T05:26:40;12.00;52.60
10300;DHT22;5195;48.562;9.192;2024-02-16T05:29:06;12.00;52.50
10300;DHT22;5195;48.562;9.192;2024-02-16T05:31:32;12.20;52.50
10300;DHT22;5195;48.562;9.192;2024-02-16T05:33:58;12.60;52.70
10300;DHT22;5195;48.562;9.192;2024-02-16T05:36:23;12.50;51.90
10300;DHT22;5195;48.562;9.192;2024-02-16T05:38:53;12.50;52.10
10300;DHT22;5195;48.562;9.192;2024-02-16T05:41:19;12.80;52.50
10300;DHT22;5195;48.562;9.192;2024-02-16T05:43:44;12.70;51.60
10300;DHT22;5195;48.562;9.192;2024-02-16T05:46:14;13.00;51.50
10300;DHT22;5195;48.562;9.192;2024-02-16T05:48:39;12.90;51.30
10300;DHT22;5195;48.562;9.192;2024-02-16T05:51:06;12.90;51.70
10300;DHT22;5195;48.562;9.192;2024-02-16T05:53:33;13.00;51.10
10300;DHT22;5195;48.562;9.192;2024-02-16T05:56:00;12.90;51.10
10300;DHT22;5195;48.562;9.192;2024-02-16T05:58:26;12.90;51.50
10300;DHT22;5195;48.562;9.192;2024-02-16T06:00:53;12.80;51.50
10300;DHT22;5195;48.562;9.192;2024-02-16T06:03:18;12.50;51.80
10300;DHT22;5195;48.562;9.192;2024-02-16T06:05:44;12.30;52.10
10300;DHT22;5195;48.562;9.192;2024-02-16T06:08:12;12.40;53.10
10300;DHT22;5195;48.562;9.192;2024-02-16T06:10:38;12.70;52.10
10300;DHT22;5195;48.562;9.192;2024-02-16T06:13:05;12.60;51.90
10300;DHT22;5195;48.562;9.192;2024-02-16T06:15:30;12.40;52.20
10300;DHT22;5195;48.562;9.192;2024-02-16T06:17:56;12.40;52.50
10300;DHT22;5195;48.562;9.192;2024-02-16T06:20:22;12.60;52.90
10300;DHT22;5195;48.562;9.192;2024-02-16T06:22:49;12.60;52.20
10300;DHT22;5195;48.562;9.192;2024-02-16T06:25:14;12.30;52.30
10300;DHT22;5195;48.562;9.192;2024-02-16T06:27:41;12.10;52.60
10300;DHT22;5195;48.562;9.192;2024-02-16T06:30:07;11.90;52.80
10300;DHT22;5195;48.562;9.192;2024-02-16T06:32:33;11.80;53.10
10300;DHT22;5195;48.562;9.192;2024-02-16T06:34:59;11.90;53.20
10300;DHT22;5195;48.562;9.192;2024-02-16T06:37:25;12.20;52.90
10300;DHT22;5195;48.562;9.192;2024-02-16T06:39:51;12.20;52.60
10300;DHT22;5195;48.562;9.192;2024-02-16T06:42:16;12.00;52.90
10300;DHT22;5195;48.562;9.192;2024-02-16T06:44:43;11.90;53.30
10300;DHT22;5195;48.562;9.192;2024-02-16T06:47:10;11.90;53.30
10300;DHT22;5195;48.562;9.192;2024-02-16T06:49:35;12.00;53.10
10300;DHT22;5195;48.562;9.192;2024-02-16T06:52:01;11.80;53.20
10300;DHT22;5195;48.562;9.192;2024-02-16T06:54:26;12.00;52.30
10300;DHT22;5195;48.562;9.192;2024-02-16T06:56:52;12.00;52.00
10300;DHT22;5195;48.562;9.192;2024-02-16T06:59:17;11.90;52.20
10300;DHT22;5195;48.562;9.192;2024-02-16T07:01:45;12.40;52.40
10300;DHT22;5195;48.562;9.192;2024-02-16T07:04:09;12.30;52.30
10300;DHT22;5195;48.562;9.192;2024-02-16T07:06:36;12.30;52.20
10300;DHT22;5195;48.562;9.192;2024-02-16T07:09:03;12.10;52.50
10300;DHT22;5195;48.562;9.192;2024-02-16T07:11:29;12.20;52.40
10300;DHT22;5195;48.562;9.192;2024-02-16T07:13:56;12.10;52.60
10300;DHT22;5195;48.562;9.192;2024-02-16T07:16:22;12.00;52.50
10300;DHT22;5195;48.562;9.192;2024-02-16T07:18:48;11.90;52.80
10300;DHT22;5195;48.562;9.192;2024-02-16T07:21:13;12.20;52.50
10300;DHT22;5195;48.562;9.192;2024-02-16T07:23:41;12.20;52.40
10300;DHT22;5195;48.562;9.192;2024-02-16T07:26:06;12.20;52.40
10300;DHT22;5195;48.562;9.192;2024-02-16T07:28:32;12.20;52.60
10300;DHT22;5195;48.562;9.192;2024-02-16T07:30:57;12.10;52.60
10300;DHT22;5195;48.562;9.192;2024-02-16T07:33:25;12.00;52.60
10300;DHT22;5195;48.562;9.192;2024-02-16T07:35:50;12.00;52.60
10300;DHT22;5195;48.562;9.192;2024-02-16T07:38:17;11.90;53.30
10300;DHT22;5195;48.562;9.192;2024-02-16T07:40:42;11.90;52.50
10300;DHT22;5195;48.562;9.192;2024-02-16T07:43:09;11.90;52.50
10300;DHT22;5195;48.562;9.192;2024-02-16T07:45:35;11.90;52.40
10300;DHT22;5195;48.562;9.192;2024-02-16T07:48:01;12.30;50.60
10300;DHT22;5195;48.562;9.192;2024-02-16T07:50:28;12.30;50.50
10300;DHT22;5195;48.562;9.192;2024-02-16T07:52:53;12.30;50.80
10300;DHT22;5195;48.562;9.192;2024-02-16T07:55:20;12.50;49.50
10300;DHT22;5195;48.562;9.192;2024-02-16T07:57:47;12.80;48.50
10300;DHT22;5195;48.562;9.192;2024-02-16T08:00:13;13.20;47.80
10300;DHT22;5195;48.562;9.192;2024-02-16T08:02:39;13.30;48.00
10300;DHT22;5195;48.562;9.192;2024-02-16T08:05:04;13.40;46.60
10300;DHT22;5195;48.562;9.192;2024-02-16T08:07:30;13.40;47.00
10300;DHT22;5195;48.562;9.192;2024-02-16T08:09:55;13.20;47.50
10300;DHT22;5195;48.562;9.192;2024-02-16T08:12:21;13.30;46.60
10300;DHT22;5195;48.562;9.192;2024-02-16T08:14:47;13.60;46.10
10300;DHT22;5195;48.562;9.192;2024-02-16T08:17:14;13.60;46.50
10300;DHT22;5195;48.562;9.192;2024-02-16T08:19:39;13.40;47.00
10300;DHT22;5195;48.562;9.192;2024-02-16T08:22:06;13.30;47.60
10300;DHT22;5195;48.562;9.192;2024-02-16T08:24:35;13.60;47.20
10300;DHT22;5195;48.562;9.192;2024-02-16T08:27:00;13.60;46.80
10300;DHT22;5195;48.562;9.192;2024-02-16T08:29:26;13.90;47.10
10300;DHT22;5195;48.562;9.192;2024-02-16T08:31:52;14.00;47.50
10300;DHT22;5195;48.562;9.192;2024-02-16T08:34:18;14.10;47.90
10300;DHT22;5195;48.562;9.192;2024-02-16T08:36:46;14.50;48.30
10300;DHT22;5195;48.562;9.192;2024-02-16T08:39:09;15.00;47.90
10300;DHT22;5195;48.562;9.192;2024-02-16T08:41:35;15.50;47.50
10300;DHT22;5195;48.562;9.192;2024-02-16T08:44:00;15.80;46.70
10300;DHT22;5195;48.562;9.192;2024-02-16T08:46:26;16.10;46.00
10300;DHT22;5195;48.562;9.192;2024-02-16T08:48:51;16.30;45.50
10300;DHT22;5195;48.562;9.192;2024-02-16T08:51:17;16.40;44.80
10300;DHT22;5195;48.562;9.192;2024-02-16T08:53:43;16.10;44.90
10300;DHT22;5195;48.562;9.192;2024-02-16T08:56:09;15.70;45.40
10300;DHT22;5195;48.562;9.192;2024-02-16T08:58:34;15.40;46.20
10300;DHT22;5195;48.562;9.192;2024-02-16T09:00:59;15.20;46.90
10300;DHT22;5195;48.562;9.192;2024-02-16T09:03:26;15.60;46.10
10300;DHT22;5195;48.562;9.192;2024-02-16T09:05:51;15.60;46.10
10300;DHT22;5195;48.562;9.192;2024-02-16T09:08:17;16.00;45.90
10300;DHT22;5195;48.562;9.192;2024-02-16T09:10:44;16.30;45.30
10300;DHT22;5195;48.562;9.192;2024-02-16T09:13:10;16.60;44.60
10300;DHT22;5195;48.562;9.192;2024-02-16T09:15:35;16.80;43.70
10300;DHT22;5195;48.562;9.192;2024-02-16T09:18:01;16.90;43.10
10300;DHT22;5195;48.562;9.192;2024-02-16T09:20:26;16.90;43.60
10300;DHT22;5195;48.562;9.192;2024-02-16T09:22:53;16.70;44.20
10300;DHT22;5195;48.562;9.192;2024-02-16T09:25:20;16.60;44.70
10300;DHT22;5195;48.562;9.192;2024-02-16T09:27:46;16.50;45.20
10300;DHT22;5195;48.562;9.192;2024-02-16T09:30:12;17.10;43.30
10300;DHT22;5195;48.562;9.192;2024-02-16T09:32:40;17.30;43.60
10300;DHT22;5195;48.562;9.192;2024-02-16T09:35:06;17.40;42.70
10300;DHT22;5195;48.562;9.192;2024-02-16T09:37:32;17.40;42.70
10300;DHT22;5195;48.562;9.192;2024-02-16T09:39:57;17.50;43.10
10300;DHT22;5195;48.562;9.192;2024-02-16T09:42:26;17.40;43.60
10300;DHT22;5195;48.562;9.192;2024-02-16T09:44:51;17.60;43.10
10300;DHT22;5195;48.562;9.192;2024-02-16T09:47:17;17.80;42.00
10300;DHT22;5195;48.562;9.192;2024-02-16T09:49:43;17.80;42.40
10300;DHT22;5195;48.562;9.192;2024-02-16T09:52:09;17.60;43.00
10300;DHT22;5195;48.562;9.192;2024-02-16T09:54:34;17.40;43.30
10300;DHT22;5195;48.562;9.192;2024-02-16T09:57:01;17.30;43.50
10300;DHT22;5195;48.562;9.192;2024-02-16T09:59:26;17.30;43.60
10300;DHT22;5195;48.562;9.192;2024-02-16T10:01:59;17.50;42.90
10300;DHT22;5195;48.562;9.192;2024-02-16T10:04:24;17.70;42.90
10300;DHT22;5195;48.562;9.192;2024-02-16T10:06:50;17.70;43.00
10300;DHT22;5195;48.562;9.192;2024-02-16T10:09:25;18.00;42.10
10300;DHT22;5195;48.562;9.192;2024-02-16T10:11:51;18.30;41.50
10300;DHT22;5195;48.562;9.192;2024-02-16T10:14:16;18.70;40.30
10300;DHT22;5195;48.562;9.192;2024-02-16T10:16:42;18.70;40.70
10300;DHT22;5195;48.562;9.192;2024-02-16T10:19:08;18.40;40.90
10300;DHT22;5195;48.562;9.192;2024-02-16T10:21:33;18.10;41.30
10300;DHT22;5195;48.562;9.192;2024-02-16T10:24:06;18.10;40.30
10300;DHT22;5195;48.562;9.192;2024-02-16T10:26:32;18.00;40.70
10300;DHT22;5195;48.562;9.192;2024-02-16T10:28:57;18.10;40.40
10300;DHT22;5195;48.562;9.192;2024-02-16T10:31:24;18.10;40.80
10300;DHT22;5195;48.562;9.192;2024-02-16T10:33:50;18.20;41.10
10300;DHT22;5195;48.562;9.192;2024-02-16T10:36:15;18.10;40.70
10300;DHT22;5195;48.562;9.192;2024-02-16T10:38:41;18.00;41.20
10300;DHT22;5195;48.562;9.192;2024-02-16T10:41:07;18.00;40.80
10300;DHT22;5195;48.562;9.192;2024-02-16T10:43:53;18.30;40.00
10300;DHT22;5195;48.562;9.192;2024-02-16T10:46:31;18.50;40.40
10300;DHT22;5195;48.562;9.192;2024-02-16T10:49:06;18.50;40.20
10300;DHT22;5195;48.562;9.192;2024-02-16T10:51:47;18.30;40.80
10300;DHT22;5195;48.562;9.192;2024-02-16T10:54:23;18.20;41.30
10300;DHT22;5195;48.562;9.192;2024-02-16T10:56:58;18.20;42.10
10300;DHT22;5195;48.562;9.192;2024-02-16T10:59:46;18.10;41.70
10300;DHT22;5195;48.562;9.192;2024-02-16T11:02:22;18.10;41.90
10300;DHT22;5195;48.562;9.192;2024-02-16T11:04:57;18.10;41.90
10300;DHT22;5195;48.562;9.192;2024-02-16T11:07:33;18.40;41.00
10300;DHT22;5195;48.562;9.192;2024-02-16T11:10:11;18.60;41.20
10300;DHT22;5195;48.562;9.192;2024-02-16T11:12:44;18.60;41.50
10300;DHT22;5195;48.562;9.192;2024-02-16T11:15:27;18.70;41.70
10300;DHT22;5195;48.562;9.192;2024-02-16T11:17:56;19.00;40.70
10300;DHT22;5195;48.562;9.192;2024-02-16T11:20:37;19.50;39.90
10300;DHT22;5195;48.562;9.192;2024-02-16T11:23:16;19.60;40.10
10300;DHT22;5195;48.562;9.192;2024-02-16T11:25:51;19.50;40.50
10300;DHT22;5195;48.562;9.192;2024-02-16T11:28:27;19.50;40.90
10300;DHT22;5195;48.562;9.192;2024-02-16T11:31:03;19.60;40.00
10300;DHT22;5195;48.562;9.192;2024-02-16T11:33:43;19.90;39.50
10300;DHT22;5195;48.562;9.192;2024-02-16T11:36:24;19.90;39.70
10300;DHT22;5195;48.562;9.192;2024-02-16T11:39:00;19.80;39.80
10300;DHT22;5195;48.562;9.192;2024-02-16T11:41:36;19.80;39.70
10300;DHT22;5195;48.562;9.192;2024-02-16T11:44:15;20.10;39.40
10300;DHT22;5195;48.562;9.192;2024-02-16T11:46:54;20.30;38.80
10300;DHT22;5195;48.562;9.192;2024-02-16T11:49:30;20.50;38.40
10300;DHT22;5195;48.562;9.192;2024-02-16T11:52:07;20.40;38.80
10300;DHT22;5195;48.562;9.192;2024-02-16T11:54:47;20.10;39.50
10300;DHT22;5195;48.562;9.192;2024-02-16T11:57:22;20.10;39.50
10300;DHT22;5195;48.562;9.192;2024-02-16T11:59:59;20.20;39.70
10300;DHT22;5195;48.562;9.192;2024-02-16T12:02:35;20.20;39.70
10300;DHT22;5195;48.562;9.192;2024-02-16T12:05:13;20.30;39.60
10300;DHT22;5195;48.562;9.192;2024-02-16T12:07:46;20.10;40.70
10300;DHT22;5195;48.562;9.192;2024-02-16T12:10:22;20.10;40.00
10300;DHT22;5195;48.562;9.192;2024-02-16T12:12:58;19.90;40.20
10300;DHT22;5195;48.562;9.192;2024-02-16T12:15:34;19.80;39.90
10300;DHT22;5195;48.562;9.192;2024-02-16T12:18:09;19.80;39.90
10300;DHT22;5195;48.562;9.192;2024-02-16T12:20:56;20.20;39.00
10300;DHT22;5195;48.562;9.192;2024-02-16T12:23:21;20.20;39.00
10300;DHT22;5195;48.562;9.192;2024-02-16T12:25:57;20.10;39.30
10300;DHT22;5195;48.562;9.192;2024-02-16T12:28:34;19.80;39.90
10300;DHT22;5195;48.562;9.192;2024-02-16T12:31:09;19.80;39.80
10300;DHT22;5195;48.562;9.192;2024-02-16T12:33:45;20.00;39.70
10300;DHT22;5195;48.562;9.192;2024-02-16T12:36:22;20.10;39.60
10300;DHT22;5195;48.562;9.192;2024-02-16T12:38:58;20.00;39.50
10300;DHT22;5195;48.562;9.192;2024-02-16T12:41:33;19.70;40.10
10300;DHT22;5195;48.562;9.192;2024-02-16T12:44:11;19.80;40.30
10300;DHT22;5195;48.562;9.192;2024-02-16T12:46:46;20.00;39.90
10300;DHT22;5195;48.562;9.192;2024-02-16T12:49:22;20.20;39.90
10300;DHT22;5195;48.562;9.192;2024-02-16T12:51:57;20.30;39.50
10300;DHT22;5195;48.562;9.192;2024-02-16T12:54:33;20.20;39.70
10300;DHT22;5195;48.562;9.192;2024-02-16T12:57:11;19.90;40.20
10300;DHT22;5195;48.562;9.192;2024-02-16T12:59:45;19.90;40.10
10300;DHT22;5195;48.562;9.192;2024-02-16T13:02:20;19.90;40.40
10300;DHT22;5195;48.562;9.192;2024-02-16T13:04:57;19.80;41.40
10300;DHT22;5195;48.562;9.192;2024-02-16T13:07:34;19.80;40.90
10300;DHT22;5195;48.562;9.192;2024-02-16T13:10:10;20.00;40.70
10300;DHT22;5195;48.562;9.192;2024-02-16T13:12:46;20.00;40.70
10300;DHT22;5195;48.562;9.192;2024-02-16T13:15:22;19.80;41.00
10300;DHT22;5195;48.562;9.192;2024-02-16T13:17:58;19.80;40.90
10300;DHT22;5195;48.562;9.192;2024-02-16T13:20:33;19.90;40.70
10300;DHT22;5195;48.562;9.192;2024-02-16T13:23:10;19.70;41.10
10300;DHT22;5195;48.562;9.192;2024-02-16T13:25:45;19.60;40.90
10300;DHT22;5195;48.562;9.192;2024-02-16T13:28:21;19.50;41.40
10300;DHT22;5195;48.562;9.192;2024-02-16T13:30:56;19.40;41.70
10300;DHT22;5195;48.562;9.192;2024-02-16T13:33:32;19.50;41.40
10300;DHT22;5195;48.562;9.192;2024-02-16T13:36:08;19.80;41.00
10300;DHT22;5195;48.562;9.192;2024-02-16T13:38:43;19.90;40.50
10300;DHT22;5195;48.562;9.192;2024-02-16T13:41:20;19.90;41.00
10300;DHT22;5195;48.562;9.192;2024-02-16T13:43:55;19.80;40.90
10300;DHT22;5195;48.562;9.192;2024-02-16T13:46:31;19.70;41.30
10300;DHT22;5195;48.562;9.192;2024-02-16T13:49:06;19.50;41.60
10300;DHT22;5195;48.562;9.192;2024-02-16T13:51:42;19.30;41.90
10300;DHT22;5195;48.562;9.192;2024-02-16T13:54:18;19.20;42.20
10300;DHT22;5195;48.562;9.192;2024-02-16T13:56:54;19.30;42.70
10300;DHT22;5195;48.562;9.192;2024-02-16T13:59:29;19.30;42.70
10300;DHT22;5195;48.562;9.192;2024-02-16T14:02:05;19.40;42.50
10300;DHT22;5195;48.562;9.192;2024-02-16T14:04:41;19.40;42.60
10300;DHT22;5195;48.562;9.192;2024-02-16T14:07:17;19.40;42.60
10300;DHT22;5195;48.562;9.192;2024-02-16T14:09:52;19.80;42.60
10300;DHT22;5195;48.562;9.192;2024-02-16T14:12:28;19.80;42.30
10300;DHT22;5195;48.562;9.192;2024-02-16T14:15:04;19.90;42.70
10300;DHT22;5195;48.562;9.192;2024-02-16T14:17:40;19.90;42.50
10300;DHT22;5195;48.562;9.192;2024-02-16T14:20:16;20.20;42.40
10300;DHT22;5195;48.562;9.192;2024-02-16T14:22:51;20.10;42.30
10300;DHT22;5195;48.562;9.192;2024-02-16T14:25:27;20.10;42.80
10300;DHT22;5195;48.562;9.192;2024-02-16T14:28:03;19.90;42.50
10300;DHT22;5195;48.562;9.192;2024-02-16T14:30:38;19.60;42.90
10300;DHT22;5195;48.562;9.192;2024-02-16T14:33:18;19.60;43.80
10300;DHT22;5195;48.562;9.192;2024-02-16T14:35:54;19.60;43.40
10300;DHT22;5195;48.562;9.192;2024-02-16T14:38:30;19.60;43.40
10300;DHT22;5195;48.562;9.192;2024-02-16T14:41:05;19.70;44.00
10300;DHT22;5195;48.562;9.192;2024-02-16T14:43:41;19.70;43.30
10300;DHT22;5195;48.562;9.192;2024-02-16T14:46:17;19.80;43.30
10300;DHT22;5195;48.562;9.192;2024-02-16T14:48:52;19.90;43.10
10300;DHT22;5195;48.562;9.192;2024-02-16T14:51:28;19.90;43.00
10300;DHT22;5195;48.562;9.192;2024-02-16T14:54:03;19.50;43.20
10300;DHT22;5195;48.562;9.192;2024-02-16T14:56:39;19.30;43.70
10300;DHT22;5195;48.562;9.192;2024-02-16T14:59:15;19.30;44.40
10300;DHT22;5195;48.562;9.192;2024-02-16T15:01:52;19.70;43.90
10300;DHT22;5195;48.562;9.192;2024-02-16T15:04:28;19.70;43.90
10300;DHT22;5195;48.562;9.192;2024-02-16T15:07:03;19.60;43.70
10300;DHT22;5195;48.562;9.192;2024-02-16T15:09:39;19.30;44.70
10300;DHT22;5195;48.562;9.192;2024-02-16T15:12:16;19.10;44.40
10300;DHT22;5195;48.562;9.192;2024-02-16T15:14:51;18.90;44.70
10300;DHT22;5195;48.562;9.192;2024-02-16T15:17:27;19.00;45.10
10300;DHT22;5195;48.562;9.192;2024-02-16T15:20:02;19.20;44.70
10300;DHT22;5195;48.562;9.192;2024-02-16T15:22:40;19.10;44.40
10300;DHT22;5195;48.562;9.192;2024-02-16T15:25:15;18.90;44.70
10300;DHT22;5195;48.562;9.192;2024-02-16T15:27:50;18.90;45.10
10300;DHT22;5195;48.562;9.192;2024-02-16T15:30:27;18.90;45.20
10300;DHT22;5195;48.562;9.192;2024-02-16T15:33:03;18.80;45.10
10300;DHT22;5195;48.562;9.192;2024-02-16T15:35:38;19.10;44.90
10300;DHT22;5195;48.562;9.192;2024-02-16T15:38:14;19.00;44.70
10300;DHT22;5195;48.562;9.192;2024-02-16T15:40:49;19.00;45.20
10300;DHT22;5195;48.562;9.192;2024-02-16T15:43:25;18.80;45.00
10300;DHT22;5195;48.562;9.192;2024-02-16T15:46:01;18.90;45.20
10300;DHT22;5195;48.562;9.192;2024-02-16T15:48:36;18.70;45.00
10300;DHT22;5195;48.562;9.192;2024-02-16T15:51:12;18.50;45.30
10300;DHT22;5195;48.562;9.192;2024-02-16T15:53:47;18.60;45.70
10300;DHT22;5195;48.562;9.192;2024-02-16T15:56:23;18.50;45.40
10300;DHT22;5195;48.562;9.192;2024-02-16T15:58:58;18.60;45.80
10300;DHT22;5195;48.562;9.192;2024-02-16T16:01:37;18.60;45.70
10300;DHT22;5195;48.562;9.192;2024-02-16T16:04:13;18.30;45.70
10300;DHT22;5195;48.562;9.192;2024-02-16T16:06:48;18.10;46.00
10300;DHT22;5195;48.562;9.192;2024-02-16T16:09:24;17.90;46.10
10300;DHT22;5195;48.562;9.192;2024-02-16T16:12:00;17.80;46.30
10300;DHT22;5195;48.562;9.192;2024-02-16T16:14:36;18.40;46.60
10300;DHT22;5195;48.562;9.192;2024-02-16T16:17:11;18.40;46.50